Time;durP1;ratioP1;P1;durP2;ratioP2;P2;SDS_P1;SDS_P2;PMS_P1;PMS_P2;Temp;Humidity;BMP_temperature;BMP_pressure;BME280_temperature;BME280_humidity;BME280_pressure;Samples;Min_cycle;Max_cycle;Signal;HPM_P1;HPM_P2
2022/10/28 00:00:49;;;;;;;19.75;9.18;;;14.20;99.90;;;;;;5059699;28;20106;-80
2022/10/28 00:03:15;;;;;;;15.88;10.57;;;14.20;99.90;;;;;;5055061;28;20037;-82
2022/10/28 00:05:41;;;;;;;17.20;10.15;;;14.10;99.90;;;;;;5060361;28;20100;-81
2022/10/28 00:08:07;;;;;;;12.73;8.57;;;14.10;99.90;;;;;;5052224;28;20285;-80
2022/10/28 00:10:33;;;;;;;21.42;11.40;;;14.10;99.90;;;;;;5061366;28;20273;-82
2022/10/28 00:12:58;;;;;;;21.55;11.23;;;14.10;99.90;;;;;;5052496;28;20048;-80
2022/10/28 00:15:24;;;;;;;18.35;10.25;;;14.10;99.90;;;;;;5035391;28;20065;-79
2022/10/28 00:17:50;;;;;;;13.77;10.45;;;14.10;99.90;;;;;;5025172;28;20041;-80
2022/10/28 00:20:15;;;;;;;19.15;10.30;;;14.10;99.90;;;;;;5033106;28;20037;-79
2022/10/28 00:22:41;;;;;;;16.52;11.02;;;14.10;99.90;;;;;;5053325;28;20055;-80
2022/10/28 00:25:08;;;;;;;16.40;11.25;;;14.10;99.90;;;;;;5057641;28;20420;-79
2022/10/28 00:27:33;;;;;;;13.77;10.20;;;14.30;99.90;;;;;;5022714;28;20068;-79
2022/10/28 00:30:00;;;;;;;14.75;10.63;;;14.30;99.90;;;;;;5050731;28;20041;-79
2022/10/28 00:32:28;;;;;;;14.95;9.43;;;14.20;99.90;;;;;;5011338;28;20029;-79
2022/10/28 00:34:54;;;;;;;18.25;10.48;;;14.40;99.90;;;;;;5057156;28;20048;-80
2022/10/28 00:37:19;;;;;;;17.73;10.90;;;14.40;99.90;;;;;;5025885;28;20041;-80
2022/10/28 00:39:45;;;;;;;15.10;11.23;;;14.40;99.90;;;;;;5024586;28;20034;-80
2022/10/28 00:42:14;;;;;;;15.00;10.73;;;14.40;99.90;;;;;;5017253;28;20051;-79
2022/10/28 00:44:57;;;;;;;14.77;11.00;;;14.50;99.90;;;;;;5059147;28;20433;-79
2022/10/28 00:47:53;;;;;;;15.55;11.00;;;14.50;99.90;;;;;;5063219;28;20042;-81
2022/10/28 00:50:36;;;;;;;20.00;11.73;;;14.50;99.90;;;;;;5027922;28;20057;-79
2022/10/28 00:53:06;;;;;;;15.80;10.52;;;14.40;99.90;;;;;;5030161;28;20042;-79
2022/10/28 00:55:33;;;;;;;20.58;12.15;;;14.40;99.90;;;;;;5059768;28;20068;-79
2022/10/28 00:58:01;;;;;;;18.55;11.10;;;14.50;99.90;;;;;;5032835;28;20514;-79
2022/10/28 01:00:27;;;;;;;17.65;10.80;;;14.40;99.90;;;;;;5026441;28;20067;-77
2022/10/28 01:02:54;;;;;;;19.90;11.65;;;14.40;99.90;;;;;;5030000;28;20040;-77
2022/10/28 01:05:24;;;;;;;16.27;12.32;;;14.40;99.90;;;;;;5060559;28;20036;-78
2022/10/28 01:07:52;;;;;;;17.98;11.20;;;14.40;99.90;;;;;;5062719;28;20656;-77
2022/10/28 01:10:20;;;;;;;18.20;11.88;;;14.30;99.90;;;;;;5054612;28;20045;-78
2022/10/28 01:13:25;;;;;;;14.77;10.18;;;14.30;99.90;;;;;;5025826;28;20040;-79
2022/10/28 01:16:06;;;;;;;17.33;11.47;;;14.30;99.90;;;;;;5020944;28;20131;-78
2022/10/28 01:18:52;;;;;;;17.75;12.50;;;14.20;99.90;;;;;;5023313;28;20300;-79
2022/10/28 01:21:33;;;;;;;21.70;11.93;;;14.20;99.90;;;;;;5028052;28;20389;-77
2022/10/28 01:24:19;;;;;;;18.20;10.82;;;14.20;99.90;;;;;;5036930;28;20079;-78
2022/10/28 01:27:19;;;;;;;20.08;12.48;;;14.10;99.90;;;;;;5021575;28;20572;-77
2022/10/28 01:30:05;;;;;;;18.02;12.50;;;14.10;99.90;;;;;;5026011;28;20056;-77
2022/10/28 01:32:52;;;;;;;17.63;12.77;;;14.00;99.90;;;;;;5024855;28;20048;-77
2022/10/28 01:35:25;;;;;;;18.92;13.93;;;14.00;99.90;;;;;;5022906;28;20044;-77
2022/10/28 01:38:07;;;;;;;21.92;13.75;;;14.00;99.90;;;;;;5010761;28;20033;-77
2022/10/28 01:40:54;;;;;;;19.42;13.73;;;14.00;99.90;;;;;;5025606;28;20029;-77
2022/10/28 01:43:28;;;;;;;20.90;14.23;;;14.00;99.90;;;;;;5024001;28;20731;-78
2022/10/28 01:46:13;;;;;;;20.90;14.70;;;14.00;99.90;;;;;;5056288;28;20037;-76
2022/10/28 01:48:42;;;;;;;;;;;14.00;99.90;;;;;;5063918;28;20076;-77
2022/10/28 01:51:25;;;;;;;20.85;14.98;;;14.10;99.90;;;;;;5042848;28;19921;-79
2022/10/28 01:53:55;;;;;;;27.27;14.93;;;14.10;99.90;;;;;;5060945;28;20041;-77
2022/10/28 01:56:26;;;;;;;27.45;15.52;;;14.00;99.90;;;;;;5027103;28;20051;-78
2022/10/28 01:58:55;;;;;;;21.33;15.07;;;14.10;99.90;;;;;;5031990;28;20052;-78
2022/10/28 02:01:22;;;;;;;20.00;14.55;;;14.00;99.90;;;;;;5039500;28;20095;-78
2022/10/28 02:03:50;;;;;;;23.55;16.25;;;14.00;99.90;;;;;;5026437;28;20048;-77
2022/10/28 02:06:20;;;;;;;23.05;15.82;;;14.00;99.90;;;;;;5027768;28;20045;-78
2022/10/28 02:09:07;;;;;;;21.20;14.13;;;14.00;99.90;;;;;;5005703;28;20045;-77
2022/10/28 02:11:51;;;;;;;24.40;16.20;;;14.00;99.90;;;;;;5025221;28;20045;-77
2022/10/28 02:14:38;;;;;;;23.30;14.15;;;13.90;99.90;;;;;;5026665;28;20055;-77
2022/10/28 02:17:25;;;;;;;24.23;15.82;;;14.00;99.90;;;;;;5027550;28;20132;-78
2022/10/28 02:20:18;;;;;;;25.45;15.10;;;14.00;99.90;;;;;;5056865;28;20048;-81
2022/10/28 02:23:19;;;;;;;26.77;15.02;;;14.00;99.90;;;;;;5001075;28;20556;-77
2022/10/28 02:26:05;;;;;;;24.90;15.40;;;14.00;99.90;;;;;;5060916;28;20041;-78
2022/10/28 02:28:45;;;;;;;28.67;16.40;;;13.90;99.90;;;;;;5017297;28;20044;-78
2022/10/28 02:31:34;;;;;;;22.33;15.27;;;13.90;99.90;;;;;;5028611;28;20041;-78
2022/10/28 02:34:08;;;;;;;25.50;16.42;;;13.90;99.90;;;;;;5030242;28;20105;-77
2022/10/28 02:36:39;;;;;;;26.52;16.60;;;13.90;99.90;;;;;;5031082;28;20042;-77
2022/10/28 02:39:06;;;;;;;22.58;16.17;;;13.90;99.90;;;;;;5042099;28;20049;-78
2022/10/28 02:41:47;;;;;;;25.88;17.02;;;13.90;99.90;;;;;;5067122;28;20033;-79
2022/10/28 02:44:18;;;;;;;27.23;16.23;;;14.00;99.90;;;;;;5021276;28;20090;-78
2022/10/28 02:46:47;;;;;;;27.90;16.23;;;14.00;99.90;;;;;;5029545;28;20083;-77
2022/10/28 02:49:14;;;;;;;24.23;16.33;;;14.00;99.90;;;;;;5021550;28;20033;-78
2022/10/28 02:51:44;;;;;;;24.55;16.13;;;14.00;99.90;;;;;;5028009;28;20088;-78
2022/10/28 02:54:25;;;;;;;23.08;15.75;;;14.00;99.90;;;;;;5024884;28;20061;-78
2022/10/28 02:56:57;;;;;;;23.95;15.38;;;14.00;99.90;;;;;;5042266;28;20137;-78
2022/10/28 02:59:24;;;;;;;25.95;15.88;;;14.00;99.90;;;;;;5058300;28;20477;-77
2022/10/28 03:01:50;;;;;;;27.60;16.70;;;14.10;99.90;;;;;;5030140;28;20092;-79
2022/10/28 03:04:16;;;;;;;31.92;15.20;;;14.10;99.90;;;;;;5023606;28;20044;-77
2022/10/28 03:06:42;;;;;;;27.70;15.48;;;14.00;99.90;;;;;;5031589;28;20338;-79
2022/10/28 03:09:07;;;;;;;24.55;15.23;;;14.00;99.90;;;;;;5034945;28;20493;-77
2022/10/28 03:11:33;;;;;;;27.23;16.33;;;14.00;99.90;;;;;;5055682;28;20041;-77
2022/10/28 03:13:59;;;;;;;29.27;15.70;;;13.90;99.90;;;;;;5010019;28;20063;-78
2022/10/28 03:16:28;;;;;;;26.40;15.63;;;14.00;99.90;;;;;;5031816;28;20037;-77
2022/10/28 03:18:53;;;;;;;23.90;16.48;;;13.90;99.90;;;;;;5053983;28;20101;-79
2022/10/28 03:21:19;;;;;;;23.65;15.57;;;13.90;99.90;;;;;;5026852;28;20073;-78
2022/10/28 03:23:45;;;;;;;28.42;15.60;;;14.00;99.90;;;;;;5023708;28;20572;-77
2022/10/28 03:26:11;;;;;;;24.55;15.07;;;13.90;99.90;;;;;;5026118;28;20119;-79
2022/10/28 03:28:37;;;;;;;21.92;15.65;;;14.00;99.90;;;;;;5019698;28;20116;-77
2022/10/28 03:31:03;;;;;;;23.48;15.63;;;13.90;99.90;;;;;;5027156;28;20075;-79
2022/10/28 03:33:28;;;;;;;27.10;15.45;;;13.90;99.90;;;;;;5028560;28;20048;-78
2022/10/28 03:35:54;;;;;;;25.42;15.02;;;13.90;99.90;;;;;;5057482;28;20036;-77
2022/10/28 03:38:20;;;;;;;21.55;14.35;;;13.90;99.90;;;;;;5024419;28;20037;-77
2022/10/28 03:40:49;;;;;;;23.88;16.05;;;13.90;99.90;;;;;;5039973;28;20110;-77
2022/10/28 03:43:16;;;;;;;23.63;15.27;;;13.90;99.90;;;;;;5024504;28;20132;-78
2022/10/28 03:45:41;;;;;;;19.95;14.35;;;13.90;99.90;;;;;;5006881;28;20083;-78
2022/10/28 03:48:07;;;;;;;21.70;15.00;;;13.80;99.90;;;;;;5059137;28;20081;-81
2022/10/28 03:50:33;;;;;;;22.02;14.95;;;13.80;99.90;;;;;;5031387;28;20056;-77
2022/10/28 03:52:59;;;;;;;25.13;13.70;;;13.80;99.90;;;;;;5031281;28;20045;-78
2022/10/28 03:55:24;;;;;;;22.85;14.60;;;13.70;99.90;;;;;;5005469;28;20049;-78
2022/10/28 03:57:51;;;;;;;25.02;14.70;;;13.70;99.90;;;;;;5025157;28;20037;-77
2022/10/28 04:00:17;;;;;;;31.08;16.88;;;13.70;99.90;;;;;;5026756;28;20052;-77
2022/10/28 04:02:48;;;;;;;18.92;13.95;;;13.70;99.90;;;;;;5041023;28;20835;-78
2022/10/28 04:05:14;;;;;;;26.95;15.48;;;13.70;99.90;;;;;;5025998;28;20538;-78
2022/10/28 04:07:40;;;;;;;24.08;15.85;;;13.70;99.90;;;;;;5028791;28;20036;-78
2022/10/28 04:10:06;;;;;;;21.40;14.32;;;13.70;99.90;;;;;;5010345;28;20036;-78
2022/10/28 04:12:31;;;;;;;20.90;14.45;;;13.70;99.90;;;;;;5054695;28;20049;-79
2022/10/28 04:14:57;;;;;;;22.73;14.93;;;13.70;99.90;;;;;;5025843;28;20055;-78
2022/10/28 04:17:23;;;;;;;23.55;15.43;;;13.70;99.90;;;;;;5002266;28;20472;-79
2022/10/28 04:19:48;;;;;;;23.40;14.68;;;13.70;99.90;;;;;;5059696;28;20551;-79
2022/10/28 04:22:14;;;;;;;27.40;15.02;;;13.60;99.90;;;;;;5025733;28;20041;-78
2022/10/28 04:24:40;;;;;;;25.02;15.63;;;13.60;99.90;;;;;;5019879;28;20060;-78
2022/10/28 04:27:06;;;;;;;26.83;15.05;;;13.60;99.90;;;;;;5029828;28;20041;-79
2022/10/28 04:29:31;;;;;;;24.60;15.82;;;13.60;99.90;;;;;;5033723;28;20408;-77
2022/10/28 04:31:58;;;;;;;21.17;14.50;;;13.60;99.90;;;;;;5029251;28;20069;-78
2022/10/28 04:34:24;;;;;;;25.15;16.60;;;13.60;99.90;;;;;;5012819;28;20052;-78
2022/10/28 04:36:50;;;;;;;20.67;14.43;;;13.70;99.90;;;;;;5028268;28;20060;-78
2022/10/28 04:39:15;;;;;;;23.77;13.90;;;13.60;99.90;;;;;;5040700;28;20032;-81
2022/10/28 04:41:41;;;;;;;28.52;14.02;;;13.60;99.90;;;;;;5027923;28;20095;-78
2022/10/28 04:44:07;;;;;;;18.83;14.15;;;13.60;99.90;;;;;;5049105;28;20117;-78
2022/10/28 04:46:32;;;;;;;22.73;14.43;;;13.60;99.90;;;;;;5031624;28;20087;-78
2022/10/28 04:48:58;;;;;;;27.83;15.00;;;13.60;99.90;;;;;;5048743;28;20088;-79
2022/10/28 04:51:24;;;;;;;25.73;15.63;;;13.60;99.90;;;;;;5028420;28;20037;-78
2022/10/28 04:53:49;;;;;;;26.90;14.45;;;13.60;99.90;;;;;;5061534;28;20045;-78
2022/10/28 04:56:15;;;;;;;21.98;14.48;;;13.60;99.90;;;;;;5019555;28;20045;-78
2022/10/28 04:58:41;;;;;;;23.63;14.07;;;13.60;99.90;;;;;;5016931;28;20063;-78
2022/10/28 05:01:08;;;;;;;28.15;14.85;;;13.60;99.90;;;;;;5043092;28;20045;-78
2022/10/28 05:03:34;;;;;;;23.67;14.63;;;13.60;99.90;;;;;;5027794;28;20037;-79
2022/10/28 05:05:59;;;;;;;22.08;14.40;;;13.60;99.90;;;;;;5033168;28;20186;-79
2022/10/28 05:08:25;;;;;;;25.95;14.18;;;13.60;99.90;;;;;;5056810;28;20127;-78
2022/10/28 05:10:51;;;;;;;19.77;14.20;;;13.60;99.90;;;;;;5046509;28;20037;-79
2022/10/28 05:13:17;;;;;;;24.45;13.88;;;13.60;99.90;;;;;;5027999;28;20060;-79
2022/10/28 05:15:44;;;;;;;21.27;14.63;;;13.60;99.90;;;;;;5025566;28;20054;-78
2022/10/28 05:18:09;;;;;;;22.27;14.80;;;13.60;99.90;;;;;;5029588;28;20040;-78
2022/10/28 05:20:35;;;;;;;21.25;13.85;;;13.60;99.90;;;;;;5046263;28;20102;-78
2022/10/28 05:23:01;;;;;;;22.52;13.13;;;13.60;99.90;;;;;;5029453;28;20520;-79
2022/10/28 05:25:27;;;;;;;22.20;14.20;;;13.50;99.90;;;;;;5034138;28;20515;-78
2022/10/28 05:27:52;;;;;;;23.38;13.52;;;13.60;99.90;;;;;;5046173;28;20037;-79
2022/10/28 05:30:18;;;;;;;24.77;14.55;;;13.60;99.90;;;;;;5067628;28;20083;-79
2022/10/28 05:32:44;;;;;;;19.83;13.52;;;13.50;99.90;;;;;;5017394;28;20063;-78
2022/10/28 05:35:10;;;;;;;21.13;12.80;;;13.50;99.90;;;;;;5033303;28;20042;-77
2022/10/28 05:37:36;;;;;;;21.30;13.15;;;13.50;99.90;;;;;;5028414;28;20052;-77
2022/10/28 05:40:03;;;;;;;22.05;14.35;;;13.40;99.90;;;;;;5022697;28;20134;-79
2022/10/28 05:42:28;;;;;;;23.30;13.05;;;13.40;99.90;;;;;;5026777;28;20045;-78
2022/10/28 05:44:54;;;;;;;23.13;12.70;;;13.40;99.90;;;;;;5058971;28;20067;-78
2022/10/28 05:47:20;;;;;;;22.50;13.40;;;13.40;99.90;;;;;;5019546;28;20041;-79
2022/10/28 05:49:45;;;;;;;22.30;13.23;;;13.40;99.90;;;;;;5032316;28;20118;-77
2022/10/28 05:52:11;;;;;;;21.80;12.80;;;13.40;99.90;;;;;;5058217;28;20043;-78
2022/10/28 05:54:37;;;;;;;22.65;12.95;;;13.40;99.90;;;;;;5036808;28;20053;-77
2022/10/28 05:57:02;;;;;;;19.25;13.25;;;13.50;99.90;;;;;;5020674;28;20053;-78
2022/10/28 05:59:28;;;;;;;20.52;12.32;;;13.50;99.90;;;;;;5041834;28;20515;-78
2022/10/28 06:01:54;;;;;;;19.25;11.90;;;13.40;99.90;;;;;;5042669;28;20064;-77
2022/10/28 06:04:19;;;;;;;19.98;13.25;;;13.40;99.90;;;;;;5057739;28;20420;-78
2022/10/28 06:06:45;;;;;;;17.73;12.38;;;13.40;99.90;;;;;;5070527;28;20044;-78
2022/10/28 06:09:11;;;;;;;18.17;12.00;;;13.40;99.90;;;;;;5029494;28;20041;-78
2022/10/28 06:11:36;;;;;;;21.58;11.68;;;13.40;99.90;;;;;;5033718;28;20376;-78
2022/10/28 06:14:04;;;;;;;18.00;12.20;;;13.40;99.90;;;;;;5026290;28;20047;-78
2022/10/28 06:16:29;;;;;;;19.42;12.75;;;13.40;99.90;;;;;;5030223;28;20128;-78
2022/10/28 06:18:55;;;;;;;23.50;12.77;;;13.40;99.90;;;;;;5024803;28;20040;-79
2022/10/28 06:21:21;;;;;;;20.58;12.13;;;13.40;99.90;;;;;;5024613;28;20044;-79
2022/10/28 06:23:47;;;;;;;21.70;12.32;;;13.30;99.90;;;;;;5062055;28;20099;-77
2022/10/28 06:26:13;;;;;;;20.33;12.00;;;13.30;99.90;;;;;;5025992;28;20042;-79
2022/10/28 06:28:38;;;;;;;22.42;13.45;;;13.30;99.90;;;;;;5045268;28;20060;-78
2022/10/28 06:31:07;;;;;;;22.30;13.18;;;13.30;99.90;;;;;;5019504;28;20192;-78
2022/10/28 06:33:33;;;;;;;21.10;12.18;;;13.30;99.90;;;;;;5059149;28;20045;-80
2022/10/28 06:36:00;;;;;;;20.60;12.10;;;13.40;99.90;;;;;;5031122;28;20124;-78
2022/10/28 06:38:26;;;;;;;24.08;12.73;;;13.40;99.90;;;;;;5013932;28;20050;-78
2022/10/28 06:40:52;;;;;;;19.00;12.40;;;13.40;99.90;;;;;;5039941;28;20052;-78
2022/10/28 06:43:18;;;;;;;21.30;11.90;;;13.40;99.90;;;;;;5032285;28;20036;-78
2022/10/28 06:45:52;;;;;;;17.27;11.18;;;13.40;99.90;;;;;;5066548;28;20029;-78
2022/10/28 06:48:18;;;;;;;16.98;11.50;;;13.50;99.90;;;;;;5063624;28;20040;-78
2022/10/28 06:50:43;;;;;;;24.25;12.38;;;13.60;99.90;;;;;;5033694;28;20040;-78
2022/10/28 06:53:09;;;;;;;21.13;11.70;;;13.60;99.90;;;;;;5030997;28;20748;-81
2022/10/28 06:55:35;;;;;;;20.00;11.07;;;13.60;99.90;;;;;;5032093;28;20065;-78
2022/10/28 06:58:02;;;;;;;19.42;10.65;;;13.80;99.90;;;;;;5032152;28;20041;-78
2022/10/28 07:00:29;;;;;;;21.42;11.88;;;13.80;99.90;;;;;;5027187;28;20053;-77
2022/10/28 07:02:55;;;;;;;20.02;11.32;;;13.80;99.90;;;;;;5026484;28;20045;-78
2022/10/28 07:05:22;;;;;;;16.42;10.40;;;13.90;99.90;;;;;;5028958;28;20040;-79
2022/10/28 07:07:48;;;;;;;20.30;10.43;;;14.00;99.90;;;;;;5031368;28;20037;-78
2022/10/28 07:10:14;;;;;;;19.60;11.15;;;14.00;99.90;;;;;;5030234;28;20094;-78
2022/10/28 07:12:40;;;;;;;19.73;10.77;;;14.10;99.90;;;;;;5057683;28;20128;-78
2022/10/28 07:15:06;;;;;;;15.75;9.32;;;14.20;99.90;;;;;;5019662;28;20388;-77
2022/10/28 07:17:32;;;;;;;18.20;10.25;;;14.30;99.90;;;;;;5018024;28;20429;-78
2022/10/28 07:19:57;;;;;;;17.52;10.05;;;14.40;99.90;;;;;;5029281;28;20052;-77
2022/10/28 07:22:23;;;;;;;21.27;9.00;;;14.60;99.90;;;;;;5029900;28;20040;-79
2022/10/28 07:24:49;;;;;;;16.33;9.23;;;14.80;99.90;;;;;;5029494;28;20037;-82
2022/10/28 07:27:15;;;;;;;17.08;9.38;;;15.10;99.90;;;;;;5053710;28;20037;-82
2022/10/28 07:29:40;;;;;;;18.05;9.50;;;15.50;99.90;;;;;;5053214;28;20044;-82
2022/10/28 07:32:06;;;;;;;18.73;9.70;;;16.00;99.90;;;;;;5033798;28;20087;-83
2022/10/28 07:34:32;;;;;;;14.38;7.65;;;16.50;99.90;;;;;;5047540;28;20051;-82
2022/10/28 07:36:58;;;;;;;11.65;7.97;;;17.00;99.90;;;;;;5044060;28;20033;-82
2022/10/28 07:39:23;;;;;;;17.17;8.02;;;17.60;99.90;;;;;;5080796;28;20041;-83
2022/10/28 07:41:49;;;;;;;12.40;7.63;;;18.00;99.90;;;;;;5025071;28;20505;-82
2022/10/28 07:44:15;;;;;;;15.50;8.25;;;18.30;99.90;;;;;;5035849;28;20041;-82
2022/10/28 07:46:41;;;;;;;13.80;6.75;;;18.50;99.90;;;;;;5046015;28;20041;-82
2022/10/28 07:49:07;;;;;;;14.95;7.25;;;18.90;99.90;;;;;;5029951;28;20049;-82
2022/10/28 07:51:33;;;;;;;15.10;7.18;;;19.20;99.90;;;;;;5079812;28;20124;-81
2022/10/28 07:53:59;;;;;;;12.45;7.80;;;19.60;99.90;;;;;;5038443;28;20045;-82
2022/10/28 07:56:25;;;;;;;18.20;7.80;;;19.70;99.90;;;;;;5036029;28;20045;-81
2022/10/28 07:58:50;;;;;;;14.05;6.85;;;19.80;99.90;;;;;;5043961;28;20067;-82
2022/10/28 08:01:19;;;;;;;14.23;7.22;;;19.80;99.90;;;;;;5051907;28;20088;-81
2022/10/28 08:03:46;;;;;;;10.70;6.47;;;19.60;99.90;;;;;;5042006;28;20180;-81
2022/10/28 08:06:16;;;;;;;16.30;6.95;;;19.50;99.90;;;;;;5079367;28;20041;-82
2022/10/28 08:08:43;;;;;;;17.60;7.03;;;19.50;99.90;;;;;;5046445;28;20045;-79
2022/10/28 08:11:15;;;;;;;20.50;7.22;;;19.40;99.90;;;;;;5086703;28;20050;-82
2022/10/28 08:13:41;;;;;;;11.20;6.35;;;19.30;99.90;;;;;;5080284;28;20079;-80
2022/10/28 08:16:08;;;;;;;12.45;6.90;;;19.30;99.90;;;;;;5078557;28;20041;-81
2022/10/28 08:18:34;;;;;;;11.68;6.80;;;19.40;99.90;;;;;;5073158;28;20045;-82
2022/10/28 08:21:01;;;;;;;17.65;6.80;;;19.60;99.90;;;;;;5044411;28;20033;-82
2022/10/28 08:23:28;;;;;;;16.02;7.07;;;19.60;99.90;;;;;;5055360;28;20083;-82
2022/10/28 08:25:53;;;;;;;12.18;5.95;;;19.70;99.90;;;;;;5045102;28;20088;-82
2022/10/28 08:28:20;;;;;;;13.52;6.57;;;20.00;99.90;;;;;;5044243;28;20050;-82
2022/10/28 08:30:46;;;;;;;13.35;6.38;;;20.40;99.90;;;;;;5037033;28;20045;-82
2022/10/28 08:33:12;;;;;;;13.70;6.38;;;20.70;99.90;;;;;;5066943;28;20040;-82
2022/10/28 08:35:38;;;;;;;18.10;6.88;;;20.90;99.90;;;;;;5037539;28;20053;-82
2022/10/28 08:38:04;;;;;;;14.20;6.55;;;21.10;99.90;;;;;;5047141;28;20045;-82
2022/10/28 08:40:56;;;;;;;13.02;6.00;;;21.00;99.90;;;;;;5075667;28;20071;-82
2022/10/28 08:43:34;;;;;;;15.40;6.05;;;21.00;99.90;;;;;;5039488;28;20103;-82
2022/10/28 08:46:09;;;;;;;16.42;5.95;;;20.80;99.90;;;;;;5073371;28;20053;-81
2022/10/28 08:48:35;;;;;;;11.45;5.97;;;20.80;99.90;;;;;;5019144;28;20086;-81
2022/10/28 08:51:11;;;;;;;15.48;5.55;;;20.90;99.90;;;;;;5070926;28;20396;-81
2022/10/28 08:53:46;;;;;;;11.50;5.53;;;21.20;99.90;;;;;;5032006;28;20050;-79
2022/10/28 08:56:24;;;;;;;11.82;5.38;;;21.70;99.90;;;;;;5038918;28;20055;-81
2022/10/28 08:58:53;;;;;;;15.35;5.95;;;22.30;99.90;;;;;;5023478;28;20057;-81
2022/10/28 09:01:30;;;;;;;12.52;4.78;;;22.80;99.90;;;;;;5033451;28;20043;-81
2022/10/28 09:04:01;;;;;;;12.20;5.60;;;23.20;99.90;;;;;;5039131;28;20046;-82
2022/10/28 09:06:29;;;;;;;11.98;5.18;;;23.20;99.90;;;;;;5036046;28;20045;-79
2022/10/28 09:08:56;;;;;;;14.43;5.28;;;22.90;99.90;;;;;;5041330;28;20072;-82
2022/10/28 09:11:24;;;;;;;10.63;5.10;;;22.50;99.90;;;;;;5036327;28;20060;-81
2022/10/28 09:14:14;;;;;;;11.43;5.22;;;22.20;99.90;;;;;;5038450;28;20094;-82
2022/10/28 09:16:48;;;;;;;11.85;5.15;;;21.80;99.90;;;;;;5039822;28;20052;-81
2022/10/28 09:19:18;;;;;;;11.25;4.60;;;21.40;99.90;;;;;;5039571;28;20051;-81
2022/10/28 09:21:47;;;;;;;11.77;5.25;;;21.10;99.90;;;;;;5033586;28;20042;-81
2022/10/28 09:24:26;;;;;;;12.10;4.80;;;20.90;99.90;;;;;;5042098;28;20033;-82
2022/10/28 09:27:14;;;;;;;12.10;5.40;;;20.60;99.90;;;;;;5037670;28;20091;-81
2022/10/28 09:30:01;;;;;;;11.88;5.10;;;20.50;99.90;;;;;;5044487;28;20543;-82
2022/10/28 09:32:49;;;;;;;12.52;5.13;;;20.30;99.90;;;;;;5068280;28;20052;-81
2022/10/28 09:35:19;;;;;;;12.48;4.97;;;20.10;99.90;;;;;;5027304;28;20459;-81
2022/10/28 09:37:55;;;;;;;15.55;5.70;;;20.00;99.90;;;;;;5022528;28;20049;-79
2022/10/28 09:40:26;;;;;;;14.85;4.95;;;19.90;99.90;;;;;;5039927;28;20067;-81
2022/10/28 09:43:13;;;;;;;11.73;5.13;;;19.80;99.90;;;;;;5070657;28;20045;-81
2022/10/28 09:45:45;;;;;;;10.85;5.38;;;19.70;99.90;;;;;;5036249;28;20098;-81
2022/10/28 09:48:11;;;;;;;12.00;5.20;;;19.70;99.90;;;;;;5051130;28;20173;-79
2022/10/28 09:50:37;;;;;;;13.93;5.80;;;19.60;99.90;;;;;;5044824;28;20034;-81
2022/10/28 09:53:32;;;;;;;14.10;5.55;;;19.50;99.90;;;;;;5034848;28;20049;-81
2022/10/28 09:55:58;;;;;;;13.40;5.60;;;19.30;99.90;;;;;;5042081;28;20049;-81
2022/10/28 09:58:23;;;;;;;12.95;5.38;;;19.10;99.90;;;;;;5052554;28;20488;-81
2022/10/28 10:00:50;;;;;;;12.88;5.55;;;19.00;99.90;;;;;;5024833;28;20057;-81
2022/10/28 10:03:16;;;;;;;16.58;6.10;;;19.00;99.90;;;;;;5035612;28;20056;-81
2022/10/28 10:05:55;;;;;;;9.20;5.40;;;18.90;99.90;;;;;;5038912;28;20033;-80
2022/10/28 10:08:21;;;;;;;13.07;4.93;;;18.90;99.90;;;;;;5044515;28;20061;-82
2022/10/28 10:10:53;;;;;;;14.10;5.95;;;18.80;99.90;;;;;;5071846;28;20041;-81
2022/10/28 10:13:28;;;;;;;12.45;5.35;;;18.80;99.90;;;;;;5032670;28;20064;-81
2022/10/28 10:16:18;;;;;;;10.35;5.70;;;18.90;99.90;;;;;;5041994;28;20041;-82
2022/10/28 10:18:49;;;;;;;15.32;5.93;;;19.00;99.90;;;;;;5014944;28;20045;-81
2022/10/28 10:21:18;;;;;;;13.15;5.70;;;19.30;99.90;;;;;;5069986;28;20033;-81
2022/10/28 10:23:44;;;;;;;15.45;6.15;;;19.50;99.90;;;;;;5031651;28;20046;-81
2022/10/28 10:26:15;;;;;;;12.25;5.80;;;19.80;99.90;;;;;;5037851;28;20091;-81
2022/10/28 10:28:49;;;;;;;13.88;5.38;;;20.10;99.90;;;;;;5065593;28;20033;-81
2022/10/28 10:31:25;;;;;;;10.85;5.43;;;20.50;99.90;;;;;;5034605;28;20037;-81
2022/10/28 10:33:56;;;;;;;12.98;5.03;;;20.60;99.90;;;;;;5035411;28;20037;-80
2022/10/28 10:36:30;;;;;;;15.02;5.05;;;20.60;99.90;;;;;;5054431;28;20065;-80
2022/10/28 10:39:00;;;;;;;;;;;20.50;99.90;;;;;;5025976;28;20485;-81
2022/10/28 10:41:43;;;;;;;16.50;5.35;;;20.40;99.90;;;;;;5069173;28;19976;-81
2022/10/28 10:44:20;;;;;;;11.60;4.63;;;20.40;99.90;;;;;;5031732;28;20105;-81
2022/10/28 10:47:00;;;;;;;16.25;5.05;;;20.70;99.90;;;;;;5026323;28;20049;-81
2022/10/28 10:49:27;;;;;;;12.13;4.97;;;20.80;99.90;;;;;;5047107;28;20046;-81
2022/10/28 10:51:58;;;;;;;10.18;5.35;;;20.70;99.90;;;;;;5072458;28;20040;-81
2022/10/28 10:54:30;;;;;;;12.60;5.35;;;20.60;99.90;;;;;;5035168;28;20064;-81
2022/10/28 10:57:19;;;;;;;10.40;5.15;;;20.60;99.90;;;;;;5073779;28;20079;-80
2022/10/28 10:59:47;;;;;;;14.93;5.00;;;20.50;99.90;;;;;;5017286;28;20043;-81
2022/10/28 11:02:36;;;;;;;12.40;4.63;;;20.40;99.90;;;;;;5071012;28;20684;-82
2022/10/28 11:05:07;;;;;;;14.55;5.60;;;20.40;99.90;;;;;;5038346;28;20052;-82
2022/10/28 11:07:33;;;;;;;13.45;5.30;;;20.40;99.90;;;;;;5071804;28;20117;-81
2022/10/28 11:09:59;;;;;;;11.82;5.18;;;20.60;99.90;;;;;;5032528;28;20068;-82
2022/10/28 11:12:34;;;;;;;14.90;5.05;;;21.20;99.90;;;;;;5060950;28;20040;-79
2022/10/28 11:15:14;;;;;;;11.35;4.90;;;21.90;99.90;;;;;;5035326;28;20248;-82
2022/10/28 11:18:01;;;;;;;13.30;5.25;;;22.20;99.90;;;;;;5053006;28;20044;-81
2022/10/28 11:20:50;;;;;;;12.25;4.90;;;22.20;99.90;;;;;;5031886;28;20132;-81
2022/10/28 11:23:41;;;;;;;10.15;4.95;;;22.00;99.90;;;;;;5039900;28;20052;-82
2022/10/28 11:26:11;;;;;;;12.95;5.53;;;21.90;99.90;;;;;;5040689;28;20045;-82
2022/10/28 11:28:43;;;;;;;14.45;5.35;;;21.70;99.90;;;;;;5043495;28;20037;-81
2022/10/28 11:31:39;;;;;;;10.57;4.93;;;21.60;99.90;;;;;;5037322;28;20041;-81
2022/10/28 11:34:04;;;;;;;16.23;4.93;;;21.50;99.90;;;;;;5058355;28;20052;-82
2022/10/28 11:37:00;;;;;;;15.32;4.50;;;21.30;99.90;;;;;;5060150;28;20064;-82
2022/10/28 11:39:35;;;;;;;13.68;4.20;;;21.30;99.90;;;;;;5041187;28;20036;-81
2022/10/28 11:42:26;;;;;;;10.73;4.70;;;21.20;99.90;;;;;;5044118;28;20123;-81
2022/10/28 11:45:07;;;;;;;16.50;6.20;;;21.20;99.90;;;;;;5044173;28;20045;-81
2022/10/28 11:47:45;;;;;;;12.98;4.70;;;21.10;99.90;;;;;;5057084;28;20522;-81
2022/10/28 11:50:44;;;;;;;15.35;4.97;;;21.10;99.90;;;;;;5062983;28;20041;-82
2022/10/28 11:53:25;;;;;;;16.00;5.47;;;21.10;99.90;;;;;;5044942;28;20049;-81
2022/10/28 11:56:30;;;;;;;13.93;5.60;;;21.10;99.90;;;;;;5079563;28;20143;-81
2022/10/28 11:59:04;;;;;;;20.05;5.45;;;21.20;99.90;;;;;;5044857;28;20440;-81
2022/10/28 12:01:58;;;;;;;12.75;4.90;;;21.10;99.90;;;;;;5043110;28;20059;-82
2022/10/28 12:04:36;;;;;;;10.75;5.07;;;21.10;99.90;;;;;;5044988;28;20049;-81
2022/10/28 12:07:32;;;;;;;12.60;5.72;;;21.10;99.90;;;;;;5041351;28;20041;-81
2022/10/28 12:10:21;;;;;;;16.13;6.47;;;21.10;99.90;;;;;;5073091;28;20025;-81
2022/10/28 12:13:00;;;;;;;14.27;6.30;;;21.00;99.90;;;;;;5038636;28;20052;-81
2022/10/28 12:15:55;;;;;;;19.52;6.53;;;20.90;99.90;;;;;;5042727;28;20103;-81
2022/10/28 12:18:50;;;;;;;16.73;6.05;;;20.80;99.90;;;;;;5072965;28;20129;-82
2022/10/28 12:21:42;;;;;;;12.18;4.95;;;20.80;99.90;;;;;;5042926;28;20043;-81
2022/10/28 12:24:15;;;;;;;11.85;4.53;;;20.80;99.90;;;;;;5044663;28;20052;-82
2022/10/28 12:26:46;;;;;;;18.80;4.60;;;20.80;99.90;;;;;;5036215;28;20047;-82
2022/10/28 12:29:25;;;;;;;11.40;4.78;;;20.80;99.90;;;;;;5045288;28;20049;-81
2022/10/28 12:32:12;;;;;;;13.25;4.97;;;20.70;99.90;;;;;;5059944;28;20049;-82
2022/10/28 12:35:06;;;;;;;13.88;4.78;;;20.80;99.90;;;;;;5070381;28;20150;-81
2022/10/28 12:37:40;;;;;;;12.07;5.47;;;20.80;99.90;;;;;;5032413;28;20099;-81
2022/10/28 12:40:17;;;;;;;13.90;5.18;;;20.80;99.90;;;;;;5055014;28;20037;-79
2022/10/28 12:43:15;;;;;;;11.13;5.05;;;20.80;99.90;;;;;;5039730;28;20041;-82
2022/10/28 12:45:42;;;;;;;12.45;5.35;;;20.80;99.90;;;;;;5070021;28;20087;-81
2022/10/28 12:48:30;;;;;;;18.25;6.35;;;20.80;99.90;;;;;;5050606;28;20057;-79
2022/10/28 12:51:29;;;;;;;17.38;6.43;;;20.80;99.90;;;;;;5053999;28;20107;-79
2022/10/28 12:54:13;;;;;;;14.60;6.30;;;20.80;99.90;;;;;;5048492;28;20052;-80